Time;durP1;ratioP1;P1;durP2;ratioP2;P2;SDS_P1;SDS_P2;PMS_P1;PMS_P2;Temp;Humidity;BMP_temperature;BMP_pressure;BME280_temperature;BME280_humidity;BME280_pressure;Samples;Min_cycle;Max_cycle;Signal;HPM_P1;HPM_P2
2021/09/09 00:01:48;;;;;;;;;;;23.10;56.10;;;;;;4989808;28;20383;-66
2021/09/09 00:04:15;;;;;;;;;;;23.10;56.10;;;;;;4990049;28;20013;-66
2021/09/09 00:06:42;;;;;;;;;;;23.10;56.10;;;;;;4991214;28;19975;-65
2021/09/09 00:09:09;;;;;;;;;;;23.10;56.20;;;;;;4991436;28;20350;-65
2021/09/09 00:11:36;;;;;;;;;;;23.10;56.10;;;;;;4990954;28;19926;-66
2021/09/09 00:14:03;;;;;;;;;;;23.10;56.20;;;;;;4990354;28;19926;-66
2021/09/09 00:16:30;;;;;;;;;;;23.10;56.20;;;;;;4991035;28;20013;-65
2021/09/09 00:18:57;;;;;;;;;;;23.10;56.20;;;;;;4991142;28;19933;-66
2021/09/09 00:21:24;;;;;;;;;;;23.10;56.20;;;;;;4991274;28;19963;-66
2021/09/09 00:23:52;;;;;;;;;;;23.10;56.20;;;;;;4972925;28;20283;-66
2021/09/09 00:26:19;;;;;;;;;;;23.00;56.10;;;;;;4989719;28;19956;-66
2021/09/09 00:28:46;;;;;;;;;;;23.00;56.10;;;;;;4989995;28;19926;-66
2021/09/09 00:31:13;;;;;;;;;;;23.00;56.10;;;;;;4989936;28;19983;-66
2021/09/09 00:33:43;;;;;;;;;;;23.00;56.10;;;;;;4972885;28;20382;-66
2021/09/09 00:36:11;;;;;;;;;;;23.10;56.10;;;;;;4990111;28;19934;-66
2021/09/09 00:38:38;;;;;;;;;;;23.00;56.10;;;;;;4990869;28;19926;-66
2021/09/09 00:41:05;;;;;;;;;;;23.00;56.10;;;;;;4972815;28;19930;-66
2021/09/09 00:43:32;;;;;;;;;;;23.00;56.00;;;;;;4989947;28;20035;-65
2021/09/09 00:45:59;;;;;;;;;;;23.10;56.10;;;;;;4990058;28;19930;-65
2021/09/09 00:48:25;;;;;;;;;;;23.00;56.00;;;;;;4990633;28;20386;-66
2021/09/09 00:50:53;;;;;;;;;;;23.00;56.00;;;;;;4990890;28;19964;-66
2021/09/09 00:53:20;;;;;;;;;;;23.00;56.00;;;;;;4995916;28;20004;-66
2021/09/09 00:55:48;;;;;;;;;;;23.00;56.00;;;;;;4990328;28;19926;-66
2021/09/09 00:58:15;;;;;;;;;;;23.00;56.00;;;;;;4990133;28;19984;-66
2021/09/09 01:00:42;;;;;;;;;;;23.00;56.00;;;;;;4989726;28;19930;-65
2021/09/09 01:03:09;;;;;;;;;;;23.00;56.00;;;;;;4990565;28;19960;-66
2021/09/09 01:05:38;;;;;;;;;;;23.00;56.00;;;;;;4989395;28;20012;-65
2021/09/09 01:08:05;;;;;;;;;;;23.00;56.00;;;;;;4990407;28;20441;-65
2021/09/09 01:10:36;;;;;;;;;;;23.00;56.00;;;;;;4989375;28;19984;-65
2021/09/09 01:13:07;;;;;;;;;;;23.00;56.00;;;;;;4975462;28;20381;-65
2021/09/09 01:15:38;;;;;;;;;;;23.00;56.00;;;;;;4994114;28;19930;-66
2021/09/09 01:18:09;;;;;;;;;;;23.00;56.00;;;;;;4994071;28;20338;-66
2021/09/09 01:20:36;;;;;;;;;;;23.00;55.90;;;;;;4993783;28;20435;-66
2021/09/09 01:23:05;;;;;;;;;;;23.00;55.90;;;;;;4993655;28;19926;-66
2021/09/09 01:25:32;;;;;;;;;;;23.00;55.90;;;;;;4993664;28;19957;-66
2021/09/09 01:27:59;;;;;;;;;;;23.00;55.90;;;;;;4975473;28;19930;-66
2021/09/09 01:30:26;;;;;;;;;;;23.00;55.90;;;;;;4992716;28;20040;-66
2021/09/09 01:32:53;;;;;;;;;;;23.00;55.90;;;;;;4993692;28;19926;-66
2021/09/09 01:35:20;;;;;;;;;;;23.00;55.90;;;;;;4992557;28;19926;-65
2021/09/09 01:37:47;;;;;;;;;;;23.00;55.90;;;;;;4993778;28;19926;-66
2021/09/09 01:40:15;;;;;;;;;;;23.00;55.90;;;;;;4993534;28;20036;-66
2021/09/09 01:42:42;;;;;;;;;;;22.90;55.80;;;;;;4975401;28;19979;-66
2021/09/09 01:45:10;;;;;;;;;;;23.00;55.90;;;;;;4993897;28;20387;-65
2021/09/09 01:47:37;;;;;;;;;;;22.90;55.80;;;;;;4993386;28;20008;-66
2021/09/09 01:50:04;;;;;;;;;;;22.90;55.80;;;;;;4993230;28;20404;-64
2021/09/09 01:52:31;;;;;;;;;;;22.90;55.80;;;;;;5041360;28;20015;-65
2021/09/09 01:54:58;;;;;;;;;;;22.90;55.70;;;;;;5010315;28;19965;-65
2021/09/09 01:57:25;;;;;;;;;;;22.90;55.70;;;;;;4992934;28;19972;-64
2021/09/09 01:59:56;;;;;;;;;;;22.90;55.70;;;;;;4992290;28;19979;-65
2021/09/09 02:02:23;;;;;;;;;;;23.00;55.80;;;;;;4993286;28;20370;-65
2021/09/09 02:04:51;;;;;;;;;;;22.90;55.70;;;;;;4993431;28;20360;-65
2021/09/09 02:07:18;;;;;;;;;;;23.00;55.80;;;;;;4992883;28;20405;-65
2021/09/09 02:09:45;;;;;;;;;;;22.90;55.70;;;;;;4992123;28;19965;-65
2021/09/09 02:12:12;;;;;;;;;;;22.90;55.70;;;;;;4992136;28;19925;-65
2021/09/09 02:14:40;;;;;;;;;;;22.90;55.70;;;;;;4992881;28;20017;-65
2021/09/09 02:17:07;;;;;;;;;;;22.90;55.70;;;;;;4992067;28;19925;-65
2021/09/09 02:19:34;;;;;;;;;;;22.90;55.70;;;;;;4993109;28;19988;-65
2021/09/09 02:22:03;;;;;;;;;;;22.90;55.70;;;;;;4992926;28;19980;-65
2021/09/09 02:24:30;;;;;;;;;;;22.90;55.70;;;;;;4992233;28;19975;-65
2021/09/09 02:26:57;;;;;;;;;;;22.90;55.70;;;;;;4991503;28;19968;-65
2021/09/09 02:29:24;;;;;;;;;;;22.90;55.70;;;;;;4991654;28;20360;-64
2021/09/09 02:31:51;;;;;;;;;;;22.90;55.70;;;;;;4992858;28;19965;-64
2021/09/09 02:34:18;;;;;;;;;;;22.90;55.70;;;;;;4993093;28;19926;-65
2021/09/09 02:36:45;;;;;;;;;;;22.90;55.70;;;;;;4991998;28;19972;-65
2021/09/09 02:39:12;;;;;;;;;;;22.90;55.60;;;;;;4975060;28;20025;-65
2021/09/09 02:41:39;;;;;;;;;;;22.90;55.60;;;;;;4992615;28;19961;-65
2021/09/09 02:44:05;;;;;;;;;;;22.90;55.60;;;;;;4991506;28;19926;-65
2021/09/09 02:46:32;;;;;;;;;;;22.90;55.60;;;;;;4992456;28;20035;-65
2021/09/09 02:48:59;;;;;;;;;;;22.90;55.60;;;;;;4975564;28;20263;-65
2021/09/09 02:51:26;;;;;;;;;;;22.90;55.60;;;;;;4993268;28;20730;-65
2021/09/09 02:53:53;;;;;;;;;;;22.90;55.50;;;;;;5014484;28;19965;-65
2021/09/09 02:56:20;;;;;;;;;;;22.90;55.60;;;;;;4991081;28;20385;-65
2021/09/09 02:58:47;;;;;;;;;;;22.90;55.50;;;;;;4992127;28;19975;-65
2021/09/09 03:01:14;;;;;;;;;;;22.90;55.50;;;;;;4992571;28;19926;-65
2021/09/09 03:03:41;;;;;;;;;;;22.90;55.50;;;;;;4991432;28;19933;-65
2021/09/09 03:06:09;;;;;;;;;;;22.90;55.50;;;;;;4992087;28;19926;-65
2021/09/09 03:08:36;;;;;;;;;;;22.80;55.40;;;;;;4992407;28;19973;-65
2021/09/09 03:11:03;;;;;;;;;;;22.90;55.50;;;;;;4991994;28;19925;-65
2021/09/09 03:13:30;;;;;;;;;;;22.90;55.50;;;;;;4992343;28;19934;-65
2021/09/09 03:15:57;;;;;;;;;;;22.80;55.40;;;;;;4991993;28;19971;-65
2021/09/09 03:18:24;;;;;;;;;;;22.80;55.40;;;;;;4990847;28;19926;-65
2021/09/09 03:20:52;;;;;;;;;;;22.80;55.40;;;;;;4991965;28;19964;-65
2021/09/09 03:23:19;;;;;;;;;;;22.80;55.40;;;;;;4990699;28;19979;-65
2021/09/09 03:25:46;;;;;;;;;;;22.80;55.30;;;;;;4991961;28;19933;-65
2021/09/09 03:28:13;;;;;;;;;;;22.80;55.30;;;;;;4974913;28;19932;-65
2021/09/09 03:30:40;;;;;;;;;;;22.80;55.30;;;;;;4990966;28;19932;-65
2021/09/09 03:33:07;;;;;;;;;;;22.80;55.30;;;;;;4992196;28;19926;-65
2021/09/09 03:35:34;;;;;;;;;;;22.90;55.40;;;;;;4990663;28;19961;-65
2021/09/09 03:38:01;;;;;;;;;;;22.80;55.30;;;;;;4973780;28;19930;-65
2021/09/09 03:40:28;;;;;;;;;;;22.80;55.30;;;;;;4991816;28;20282;-65
2021/09/09 03:42:55;;;;;;;;;;;22.80;55.30;;;;;;4991334;28;19973;-65
2021/09/09 03:45:22;;;;;;;;;;;22.80;55.30;;;;;;4991521;28;20346;-66
2021/09/09 03:47:49;;;;;;;;;;;22.80;55.30;;;;;;4990496;28;19926;-66
2021/09/09 03:50:16;;;;;;;;;;;22.80;55.20;;;;;;4990442;28;19948;-66
2021/09/09 03:52:43;;;;;;;;;;;22.80;55.30;;;;;;4993048;28;19930;-65
2021/09/09 03:55:11;;;;;;;;;;;22.80;55.30;;;;;;4990136;28;19926;-65
2021/09/09 03:57:38;;;;;;;;;;;22.80;55.20;;;;;;4991243;28;19979;-65
2021/09/09 04:00:06;;;;;;;;;;;22.80;55.30;;;;;;4991440;28;19930;-65
2021/09/09 04:02:34;;;;;;;;;;;22.80;55.20;;;;;;4991624;28;19977;-66
2021/09/09 04:05:02;;;;;;;;;;;22.80;55.20;;;;;;4990096;28;19937;-66
2021/09/09 04:07:29;;;;;;;;;;;22.80;55.10;;;;;;4991551;28;19930;-66
2021/09/09 04:09:56;;;;;;;;;;;22.80;55.20;;;;;;4991324;28;19973;-65
2021/09/09 04:12:23;;;;;;;;;;;22.80;55.10;;;;;;4990973;28;19933;-65
2021/09/09 04:14:50;;;;;;;;;;;22.80;55.10;;;;;;4990024;28;19975;-66
2021/09/09 04:17:17;;;;;;;;;;;22.80;55.10;;;;;;4991053;28;19926;-65
2021/09/09 04:19:45;;;;;;;;;;;22.80;55.10;;;;;;4974043;28;19996;-66
2021/09/09 04:22:14;;;;;;;;;;;22.80;55.10;;;;;;4974085;28;19926;-65
2021/09/09 04:24:41;;;;;;;;;;;22.80;55.10;;;;;;4974319;28;20344;-66
2021/09/09 04:27:08;;;;;;;;;;;22.80;55.10;;;;;;4990965;28;19926;-67
2021/09/09 04:29:35;;;;;;;;;;;22.80;55.10;;;;;;4991066;28;20067;-65
2021/09/09 04:32:03;;;;;;;;;;;22.80;55.00;;;;;;4991329;28;20400;-65
2021/09/09 04:34:30;;;;;;;;;;;22.80;55.10;;;;;;4989704;28;19981;-65
2021/09/09 04:36:57;;;;;;;;;;;22.80;55.00;;;;;;4990021;28;20008;-65
2021/09/09 04:39:24;;;;;;;;;;;22.80;55.00;;;;;;4990710;28;20335;-65
2021/09/09 04:41:51;;;;;;;;;;;22.80;55.00;;;;;;4973813;28;20365;-66
2021/09/09 04:44:18;;;;;;;;;;;22.80;54.90;;;;;;4989845;28;19987;-66
2021/09/09 04:46:45;;;;;;;;;;;22.80;54.90;;;;;;4989977;28;19930;-65
2021/09/09 04:49:12;;;;;;;;;;;22.80;54.90;;;;;;4989485;28;19925;-66
2021/09/09 04:51:39;;;;;;;;;;;22.80;54.90;;;;;;5000777;28;20003;-65
2021/09/09 04:54:06;;;;;;;;;;;22.80;54.90;;;;;;5029948;28;19926;-65
2021/09/09 04:56:33;;;;;;;;;;;22.80;54.80;;;;;;4990411;28;20308;-65
2021/09/09 04:59:00;;;;;;;;;;;22.80;54.80;;;;;;4990883;28;19926;-65
2021/09/09 05:01:27;;;;;;;;;;;22.80;54.80;;;;;;4990414;28;19977;-65
2021/09/09 05:03:54;;;;;;;;;;;22.80;54.80;;;;;;4972083;28;19930;-65
2021/09/09 05:06:21;;;;;;;;;;;22.80;54.70;;;;;;4990388;28;19969;-65
2021/09/09 05:08:48;;;;;;;;;;;22.80;54.70;;;;;;4990280;28;20354;-65
2021/09/09 05:11:17;;;;;;;;;;;22.80;54.60;;;;;;4989125;28;19971;-66
2021/09/09 05:13:44;;;;;;;;;;;22.80;54.60;;;;;;4984683;28;20010;-65
2021/09/09 05:16:11;;;;;;;;;;;22.80;54.60;;;;;;4981494;28;20000;-66
2021/09/09 05:18:38;;;;;;;;;;;22.80;54.60;;;;;;4989808;28;20302;-66
2021/09/09 05:21:05;;;;;;;;;;;22.90;54.70;;;;;;4972386;28;19940;-66
2021/09/09 05:23:32;;;;;;;;;;;22.90;54.70;;;;;;4990049;28;19932;-65
2021/09/09 05:25:59;;;;;;;;;;;22.90;54.70;;;;;;4990346;28;19977;-65
2021/09/09 05:28:26;;;;;;;;;;;22.90;54.60;;;;;;4987166;28;19980;-65
2021/09/09 05:30:53;;;;;;;;;;;23.00;54.60;;;;;;4989794;28;20284;-66
2021/09/09 05:33:20;;;;;;;;;;;23.00;54.60;;;;;;4990175;28;19926;-66
2021/09/09 05:35:47;;;;;;;;;;;23.00;54.60;;;;;;4975501;28;20025;-66
2021/09/09 05:38:14;;;;;;;;;;;23.00;54.50;;;;;;4989491;28;20346;-66
2021/09/09 05:40:41;;;;;;;;;;;23.00;54.40;;;;;;4972393;28;20016;-65
2021/09/09 05:43:08;;;;;;;;;;;23.10;54.50;;;;;;4971894;28;19929;-66
2021/09/09 05:45:35;;;;;;;;;;;23.10;54.50;;;;;;4989970;28;19936;-66
2021/09/09 05:48:03;;;;;;;;;;;23.10;54.50;;;;;;4988514;28;19926;-67
2021/09/09 05:50:30;;;;;;;;;;;23.10;54.40;;;;;;4989197;28;20024;-66
2021/09/09 05:52:57;;;;;;;;;;;23.10;54.60;;;;;;4999374;28;20381;-66
2021/09/09 05:55:24;;;;;;;;;;;23.10;55.40;;;;;;4989440;28;20012;-66
2021/09/09 05:57:51;;;;;;;;;;;23.10;55.50;;;;;;4990473;28;20360;-66
2021/09/09 06:00:19;;;;;;;;;;;23.10;55.60;;;;;;4992777;28;19925;-66
2021/09/09 06:02:47;;;;;;;;;;;23.10;55.60;;;;;;4975774;28;20333;-67
2021/09/09 06:05:16;;;;;;;;;;;23.20;55.50;;;;;;4991138;28;19926;-66
2021/09/09 06:07:44;;;;;;;;;;;23.20;55.30;;;;;;4975451;28;19969;-66
2021/09/09 06:10:11;;;;;;;;;;;23.20;55.10;;;;;;4992681;28;19984;-66
2021/09/09 06:12:39;;;;;;;;;;;23.20;55.00;;;;;;4992090;28;19930;-67
2021/09/09 06:15:06;;;;;;;;;;;23.20;54.90;;;;;;4991618;28;19934;-66
2021/09/09 06:17:33;;;;;;;;;;;23.20;54.90;;;;;;4992429;28;19968;-68
2021/09/09 06:20:01;;;;;;;;;;;23.20;55.00;;;;;;4992140;28;19930;-66
2021/09/09 06:22:28;;;;;;;;;;;23.30;55.30;;;;;;4991305;28;19965;-66
2021/09/09 06:24:54;;;;;;;;;;;23.30;55.40;;;;;;4990847;28;20354;-66
2021/09/09 06:27:21;;;;;;;;;;;23.30;55.50;;;;;;4992228;28;19926;-65
2021/09/09 06:29:48;;;;;;;;;;;23.30;55.60;;;;;;4993125;28;19969;-66
2021/09/09 06:32:15;;;;;;;;;;;23.30;55.70;;;;;;4992183;28;20016;-66
2021/09/09 06:34:42;;;;;;;;;;;23.30;55.70;;;;;;4991230;28;19925;-67
2021/09/09 06:37:10;;;;;;;;;;;23.30;55.70;;;;;;4992280;28;19965;-66
2021/09/09 06:39:37;;;;;;;;;;;23.40;55.70;;;;;;4991205;28;19926;-66
2021/09/09 06:42:04;;;;;;;;;;;23.40;55.70;;;;;;4991485;28;19926;-66
2021/09/09 06:44:31;;;;;;;;;;;23.40;55.70;;;;;;4992244;28;19926;-66
2021/09/09 06:46:58;;;;;;;;;;;23.40;55.70;;;;;;4975119;28;20435;-67
2021/09/09 06:49:25;;;;;;;;;;;23.40;55.60;;;;;;4991537;28;19968;-67
2021/09/09 06:51:52;;;;;;;;;;;23.50;55.70;;;;;;5011099;28;20380;-68
2021/09/09 06:54:19;;;;;;;;;;;23.50;55.80;;;;;;5048253;28;19926;-66
2021/09/09 06:56:46;;;;;;;;;;;23.50;55.80;;;;;;4991330;28;20479;-67
2021/09/09 06:59:14;;;;;;;;;;;23.50;55.80;;;;;;4990758;28;19948;-66
2021/09/09 07:01:41;;;;;;;;;;;23.50;55.80;;;;;;4991256;28;19948;-67
2021/09/09 07:04:08;;;;;;;;;;;23.50;55.80;;;;;;4990303;28;19965;-68
2021/09/09 07:06:35;;;;;;;;;;;23.50;55.70;;;;;;4992208;28;19925;-67
2021/09/09 07:09:02;;;;;;;;;;;23.50;55.60;;;;;;4990413;28;19965;-67
2021/09/09 07:11:29;;;;;;;;;;;23.60;55.60;;;;;;4991386;28;19931;-67
2021/09/09 07:13:56;;;;;;;;;;;23.60;55.60;;;;;;4991979;28;20309;-67
2021/09/09 07:16:23;;;;;;;;;;;23.60;55.40;;;;;;4990821;28;20397;-67
2021/09/09 07:18:50;;;;;;;;;;;23.60;55.30;;;;;;4991538;28;19992;-67
2021/09/09 07:21:17;;;;;;;;;;;23.60;55.20;;;;;;4990813;28;19926;-67
2021/09/09 07:23:46;;;;;;;;;;;23.60;55.10;;;;;;4991112;28;19930;-66
2021/09/09 07:26:13;;;;;;;;;;;23.60;55.00;;;;;;4973014;28;19934;-67
2021/09/09 07:28:40;;;;;;;;;;;23.70;55.00;;;;;;4990628;28;20417;-66
2021/09/09 07:31:07;;;;;;;;;;;23.70;54.80;;;;;;4991386;28;19977;-68
2021/09/09 07:33:34;;;;;;;;;;;23.70;54.70;;;;;;4989769;28;19937;-67
2021/09/09 07:36:01;;;;;;;;;;;23.70;54.50;;;;;;4991772;28;19984;-67
2021/09/09 07:38:28;;;;;;;;;;;23.70;54.50;;;;;;4990320;28;19962;-66
2021/09/09 07:40:55;;;;;;;;;;;23.70;54.40;;;;;;4991120;28;20133;-67
2021/09/09 07:43:22;;;;;;;;;;;23.70;54.30;;;;;;4972891;28;20465;-67
2021/09/09 07:45:50;;;;;;;;;;;23.70;54.30;;;;;;4990897;28;20013;-67
2021/09/09 07:48:17;;;;;;;;;;;23.70;54.30;;;;;;4989205;28;20382;-67
2021/09/09 07:50:44;;;;;;;;;;;23.70;54.30;;;;;;4991258;28;20017;-68
2021/09/09 07:53:11;;;;;;;;;;;23.70;54.30;;;;;;5027977;28;19965;-67
2021/09/09 07:55:38;;;;;;;;;;;23.70;54.30;;;;;;4990467;28;20033;-66
2021/09/09 07:58:06;;;;;;;;;;;23.70;54.30;;;;;;4990847;28;19926;-68
2021/09/09 08:00:33;;;;;;;;;;;23.70;54.30;;;;;;4989721;28;19926;-69
2021/09/09 08:03:00;;;;;;;;;;;23.70;54.30;;;;;;4973236;28;19969;-66
2021/09/09 08:05:27;;;;;;;;;;;23.70;54.30;;;;;;4989716;28;19976;-68
2021/09/09 08:07:54;;;;;;;;;;;23.70;54.40;;;;;;4991082;28;20374;-67
2021/09/09 08:10:21;;;;;;;;;;;23.80;54.50;;;;;;4973455;28;19932;-66
2021/09/09 08:12:48;;;;;;;;;;;23.70;54.40;;;;;;4991013;28;19926;-67
2021/09/09 08:15:16;;;;;;;;;;;23.70;54.40;;;;;;4990791;28;20377;-66
2021/09/09 08:17:43;;;;;;;;;;;23.80;54.50;;;;;;4990586;28;20012;-67
2021/09/09 08:20:11;;;;;;;;;;;23.80;54.50;;;;;;4990253;28;20091;-67
2021/09/09 08:22:39;;;;;;;;;;;23.80;54.60;;;;;;4990467;28;19926;-68
2021/09/09 08:25:06;;;;;;;;;;;23.80;54.60;;;;;;4989531;28;19930;-67
2021/09/09 08:27:33;;;;;;;;;;;23.80;54.70;;;;;;4990691;28;19926;-67
2021/09/09 08:30:00;;;;;;;;;;;23.80;54.80;;;;;;4989663;28;19983;-67
2021/09/09 08:32:27;;;;;;;;;;;23.80;54.80;;;;;;4989144;28;19930;-68
2021/09/09 08:34:56;;;;;;;;;;;23.80;54.90;;;;;;4990435;28;19937;-67
2021/09/09 08:37:24;;;;;;;;;;;23.90;54.80;;;;;;4990728;28;20325;-67
2021/09/09 08:39:51;;;;;;;;;;;23.90;54.70;;;;;;4972484;28;20016;-67
2021/09/09 08:42:19;;;;;;;;;;;23.90;54.70;;;;;;4989173;28;19933;-68
2021/09/09 08:44:47;;;;;;;;;;;23.90;54.70;;;;;;4979966;28;19980;-67
2021/09/09 08:47:15;;;;;;;;;;;23.90;54.70;;;;;;4989069;28;19992;-67
2021/09/09 08:49:42;;;;;;;;;;;23.90;54.60;;;;;;4990642;28;20329;-67
2021/09/09 08:52:11;;;;;;;;;;;23.90;54.60;;;;;;4976468;28;20319;-66
2021/09/09 08:54:38;;;;;;;;;;;23.90;54.60;;;;;;4989456;28;19937;-68
2021/09/09 08:57:06;;;;;;;;;;;23.90;54.50;;;;;;4990069;28;19934;-66
2021/09/09 08:59:34;;;;;;;;;;;23.90;54.50;;;;;;4990055;28;19933;-66
2021/09/09 09:02:01;;;;;;;;;;;23.90;54.50;;;;;;4990159;28;19926;-67
2021/09/09 09:04:30;;;;;;;;;;;23.90;54.60;;;;;;4989802;28;19933;-67
2021/09/09 09:06:57;;;;;;;;;;;23.90;54.60;;;;;;4990048;28;19929;-68
2021/09/09 09:09:27;;;;;;;;;;;23.90;54.70;;;;;;4989482;28;19933;-67
2021/09/09 09:11:53;;;;;;;;;;;23.90;54.70;;;;;;4990149;28;19926;-67
2021/09/09 09:14:22;;;;;;;;;;;23.90;54.70;;;;;;4990002;28;19940;-67
2021/09/09 09:16:50;;;;;;;;;;;23.90;54.80;;;;;;4989494;28;20060;-66
2021/09/09 09:19:22;;;;;;;;;;;23.90;54.80;;;;;;4989771;28;19932;-67
2021/09/09 09:21:54;;;;;;;;;;;23.90;54.90;;;;;;4989915;28;19957;-66
2021/09/09 09:24:21;;;;;;;;;;;23.90;55.60;;;;;;4989540;28;20331;-66
2021/09/09 09:27:08;;;;;;;;;;;23.90;55.10;;;;;;4989837;28;19926;-66
2021/09/09 09:29:35;;;;;;;;;;;23.90;55.20;;;;;;4988864;28;19929;-67
2021/09/09 09:32:16;;;;;;;;;;;23.90;55.30;;;;;;4989868;28;19926;-66
2021/09/09 09:34:43;;;;;;;;;;;23.90;55.40;;;;;;4993377;28;20289;-66
2021/09/09 09:37:11;;;;;;;;;;;23.90;55.40;;;;;;4992111;28;19926;-66
2021/09/09 09:39:38;;;;;;;;;;;23.90;55.60;;;;;;4992446;28;19968;-66
2021/09/09 09:42:06;;;;;;;;;;;23.90;55.60;;;;;;4993324;28;20019;-67
2021/09/09 09:44:39;;;;;;;;;;;23.90;55.80;;;;;;4992797;28;20394;-66
2021/09/09 09:47:15;;;;;;;;;;;23.90;55.90;;;;;;4992411;28;19982;-66
2021/09/09 09:49:46;;;;;;;;;;;23.90;56.00;;;;;;4992745;28;19972;-67
2021/09/09 09:52:25;;;;;;;;;;;23.90;56.00;;;;;;5029141;28;19975;-66
2021/09/09 09:54:57;;;;;;;;;;;23.90;56.10;;;;;;5012728;28;19933;-66
2021/09/09 09:57:24;;;;;;;;;;;23.90;56.20;;;;;;4991691;28;19991;-67
2021/09/09 09:59:52;;;;;;;;;;;24.00;56.10;;;;;;4992143;28;19925;-66
2021/09/09 10:02:19;;;;;;;;;;;24.00;56.00;;;;;;4992999;28;19968;-66
2021/09/09 10:04:48;;;;;;;;;;;24.00;56.00;;;;;;4993254;28;19930;-66
2021/09/09 10:07:15;;;;;;;;;;;24.00;55.90;;;;;;4992322;28;19987;-66
2021/09/09 10:09:43;;;;;;;;;;;24.00;55.90;;;;;;4991977;28;19972;-67
2021/09/09 10:12:11;;;;;;;;;;;24.00;56.40;;;;;;4992090;28;19933;-66
2021/09/09 10:14:39;;;;;;;;;;;24.00;55.80;;;;;;4991911;28;19925;-66
2021/09/09 10:17:07;;;;;;;;;;;24.00;55.80;;;;;;4993102;28;19929;-67
2021/09/09 10:19:34;;;;;;;;;;;24.00;55.70;;;;;;4991774;28;19926;-67
2021/09/09 10:22:14;;;;;;;;;;;24.00;55.70;;;;;;4992832;28;20323;-66
2021/09/09 10:24:46;;;;;;;;;;;24.00;55.70;;;;;;4993070;28;19933;-67
2021/09/09 10:27:17;;;;;;;;;;;24.00;55.70;;;;;;4975752;28;19992;-67
2021/09/09 10:30:04;;;;;;;;;;;24.00;55.60;;;;;;4992160;28;19957;-67
2021/09/09 10:32:31;;;;;;;;;;;24.00;55.60;;;;;;4991971;28;19925;-66
2021/09/09 10:35:22;;;;;;;;;;;24.00;55.60;;;;;;4992628;28;19969;-67
2021/09/09 10:37:53;;;;;;;;;;;24.00;55.60;;;;;;4991758;28;20352;-67
2021/09/09 10:40:32;;;;;;;;;;;24.00;55.50;;;;;;4991617;28;19971;-67
2021/09/09 10:43:03;;;;;;;;;;;24.00;55.60;;;;;;4991667;28;19925;-66
2021/09/09 10:45:41;;;;;;;;;;;24.00;55.60;;;;;;4990898;28;19979;-67
2021/09/09 10:48:09;;;;;;;;;;;24.00;55.50;;;;;;4992601;28;19925;-67
2021/09/09 10:50:37;;;;;;;;;;;24.00;55.50;;;;;;4992507;28;19926;-67
2021/09/09 10:53:05;;;;;;;;;;;24.00;55.50;;;;;;5016403;28;20416;-66
2021/09/09 10:55:36;;;;;;;;;;;24.00;55.40;;;;;;4992333;28;19933;-66
2021/09/09 10:58:13;;;;;;;;;;;24.00;55.40;;;;;;4992084;28;19929;-66
2021/09/09 11:00:52;;;;;;;;;;;24.00;55.40;;;;;;4991100;28;19996;-67
2021/09/09 11:03:37;;;;;;;;;;;24.00;55.40;;;;;;4991128;28;20421;-66
2021/09/09 11:06:09;;;;;;;;;;;24.00;55.30;;;;;;4991357;28;19995;-66
2021/09/09 11:08:37;;;;;;;;;;;24.00;55.40;;;;;;4992136;28;19925;-67
2021/09/09 11:11:05;;;;;;;;;;;24.00;55.40;;;;;;4991851;28;20029;-66
2021/09/09 11:13:33;;;;;;;;;;;24.00;55.30;;;;;;4991601;28;20416;-66
2021/09/09 11:16:00;;;;;;;;;;;24.00;55.30;;;;;;4990969;28;20393;-66
2021/09/09 11:18:32;;;;;;;;;;;24.00;55.30;;;;;;4992290;28;20024;-66
2021/09/09 11:21:00;;;;;;;;;;;24.00;55.30;;;;;;4992370;28;19933;-66
2021/09/09 11:23:26;;;;;;;;;;;24.00;55.30;;;;;;4991886;28;20020;-66
2021/09/09 11:25:53;;;;;;;;;;;24.00;55.20;;;;;;4990873;28;20352;-66
2021/09/09 11:28:21;;;;;;;;;;;24.00;55.20;;;;;;4991750;28;19976;-67
2021/09/09 11:31:08;;;;;;;;;;;24.00;55.20;;;;;;4991932;28;20031;-66
2021/09/09 11:33:47;;;;;;;;;;;24.00;55.20;;;;;;4975750;28;19973;-67
2021/09/09 11:36:14;;;;;;;;;;;24.00;55.20;;;;;;4991648;28;20455;-66
2021/09/09 11:38:41;;;;;;;;;;;24.10;55.30;;;;;;4990929;28;20341;-66
2021/09/09 11:41:08;;;;;;;;;;;24.00;55.20;;;;;;4991884;28;19950;-67
2021/09/09 11:43:34;;;;;;;;;;;24.00;55.20;;;;;;4990630;28;19926;-67
2021/09/09 11:46:02;;;;;;;;;;;24.10;55.30;;;;;;4990751;28;19955;-67
2021/09/09 11:48:33;;;;;;;;;;;24.10;55.30;;;;;;4991624;28;19930;-67
2021/09/09 11:51:00;;;;;;;;;;;24.00;55.20;;;;;;4990729;28;20320;-66
2021/09/09 11:53:27;;;;;;;;;;;24.00;55.20;;;;;;4992190;28;19975;-66
2021/09/09 11:55:55;;;;;;;;;;;24.00;55.20;;;;;;4991271;28;19925;-66
2021/09/09 11:58:36;;;;;;;;;;;24.00;55.20;;;;;;4991652;28;20326;-67
2021/09/09 12:01:04;;;;;;;;;;;24.00;55.20;;;;;;4991296;28;19965;-68
2021/09/09 12:03:34;;;;;;;;;;;24.00;55.20;;;;;;4991439;28;19934;-67
2021/09/09 12:06:02;;;;;;;;;;;24.00;55.20;;;;;;4991539;28;20377;-66
2021/09/09 12:08:31;;;;;;;;;;;24.00;55.20;;;;;;4991615;28;20044;-67
2021/09/09 12:11:08;;;;;;;;;;;24.00;55.20;;;;;;4991316;28;19933;-67
2021/09/09 12:13:35;;;;;;;;;;;24.00;55.20;;;;;;4991531;28;19957;-66
2021/09/09 12:16:13;;;;;;;;;;;24.00;55.20;;;;;;4991239;28;19926;-66
2021/09/09 12:18:41;;;;;;;;;;;24.00;55.20;;;;;;4991398;28;19926;-67
2021/09/09 12:21:10;;;;;;;;;;;24.00;55.20;;;;;;4989996;28;19932;-67
2021/09/09 12:23:37;;;;;;;;;;;24.00;55.20;;;;;;4991235;28;19965;-66
2021/09/09 12:26:17;;;;;;;;;;;24.00;55.20;;;;;;4990028;28;19979;-67
2021/09/09 12:28:44;;;;;;;;;;;24.00;55.20;;;;;;4991045;28;19975;-66
2021/09/09 12:31:11;;;;;;;;;;;24.00;55.20;;;;;;4990788;28;20427;-67
2021/09/09 12:33:39;;;;;;;;;;;23.90;55.10;;;;;;4990010;28;19933;-67
2021/09/09 12:36:10;;;;;;;;;;;24.00;55.20;;;;;;4990736;28;20443;-67
2021/09/09 12:38:41;;;;;;;;;;;24.00;55.20;;;;;;4990976;28;19983;-67
2021/09/09 12:41:09;;;;;;;;;;;24.00;55.20;;;;;;4990589;28;19980;-65
2021/09/09 12:43:40;;;;;;;;;;;24.00;55.10;;;;;;4989738;28;19926;-67
2021/09/09 12:46:23;;;;;;;;;;;24.00;55.20;;;;;;4989736;28;19969;-67
2021/09/09 12:49:03;;;;;;;;;;;24.00;55.10;;;;;;4989770;28;20285;-69
2021/09/09 12:51:34;;;;;;;;;;;24.00;55.10;;;;;;4994087;28;19976;-67
2021/09/09 12:54:01;;;;;;;;;;;24.00;55.10;;;;;;5031319;28;19925;-67
2021/09/09 12:56:28;;;;;;;;;;;24.00;55.10;;;;;;4990444;28;19977;-67
2021/09/09 12:58:55;;;;;;;;;;;24.00;55.10;;;;;;4990880;28;19926;-67
2021/09/09 13:01:22;;;;;;;;;;;24.00;55.10;;;;;;4990797;28;19926;-67
2021/09/09 13:03:50;;;;;;;;;;;24.00;55.00;;;;;;4990349;28;19925;-67
2021/09/09 13:06:17;;;;;;;;;;;24.00;55.00;;;;;;4989918;28;20377;-67
2021/09/09 13:08:44;;;;;;;;;;;24.00;55.00;;;;;;4989877;28;20009;-67
2021/09/09 13:11:11;;;;;;;;;;;24.00;55.00;;;;;;4989164;28;19939;-67
2021/09/09 13:13:39;;;;;;;;;;;24.00;55.00;;;;;;4990324;28;20374;-67
2021/09/09 13:16:06;;;;;;;;;;;24.00;55.00;;;;;;4989532;28;19972;-67
2021/09/09 13:18:42;;;;;;;;;;;24.00;55.00;;;;;;4972857;28;19932;-67
2021/09/09 13:21:10;;;;;;;;;;;24.00;55.00;;;;;;4973923;28;19949;-67
2021/09/09 13:23:39;;;;;;;;;;;24.00;55.00;;;;;;4972494;28;19965;-67
2021/09/09 13:26:06;;;;;;;;;;;24.00;55.00;;;;;;4990546;28;20281;-68
2021/09/09 13:28:33;;;;;;;;;;;24.00;55.00;;;;;;4989425;28;20025;-67
2021/09/09 13:31:00;;;;;;;;;;;24.00;55.00;;;;;;4990274;28;20389;-68
2021/09/09 13:33:27;;;;;;;;;;;24.00;55.00;;;;;;4990399;28;19948;-67
2021/09/09 13:35:56;;;;;;;;;;;24.00;55.00;;;;;;4989000;28;19926;-67
2021/09/09 13:38:23;;;;;;;;;;;24.00;55.00;;;;;;4989039;28;20389;-67
2021/09/09 13:40:50;;;;;;;;;;;24.00;54.90;;;;;;4989774;28;20397;-67
2021/09/09 13:43:17;;;;;;;;;;;24.00;55.00;;;;;;4988803;28;19976;-66
2021/09/09 13:45:44;;;;;;;;;;;24.00;55.00;;;;;;4988726;28;19994;-66
2021/09/09 13:48:11;;;;;;;;;;;24.00;55.00;;;;;;4989695;28;19926;-67
2021/09/09 13:50:38;;;;;;;;;;;24.00;55.00;;;;;;4988870;28;19961;-66
2021/09/09 13:53:06;;;;;;;;;;;24.00;54.90;;;;;;4999569;28;19926;-67
2021/09/09 13:55:33;;;;;;;;;;;24.00;54.90;;;;;;4988572;28;19975;-66
2021/09/09 13:58:00;;;;;;;;;;;24.00;54.90;;;;;;4989383;28;19930;-67
2021/09/09 14:00:27;;;;;;;;;;;24.00;54.90;;;;;;4989770;28;19929;-67
2021/09/09 14:02:54;;;;;;;;;;;24.00;54.90;;;;;;4989846;28;19926;-67
2021/09/09 14:05:38;;;;;;;;;;;24.00;54.90;;;;;;4988751;28;19932;-67
2021/09/09 14:08:05;;;;;;;;;;;24.00;54.80;;;;;;4988910;28;20004;-67
2021/09/09 14:10:32;;;;;;;;;;;24.00;54.90;;;;;;4988703;28;19926;-67
2021/09/09 14:12:59;;;;;;;;;;;24.00;54.90;;;;;;4972567;28;20332;-67
2021/09/09 14:15:26;;;;;;;;;;;24.00;54.80;;;;;;4988795;28;20005;-67
2021/09/09 14:17:53;;;;;;;;;;;24.00;54.80;;;;;;4988720;28;20329;-67
2021/09/09 14:20:20;;;;;;;;;;;24.00;54.80;;;;;;4990911;28;19926;-68
2021/09/09 14:22:48;;;;;;;;;;;24.00;54.80;;;;;;4975996;28;20375;-67